createdAt,value
2019-05-07T00:00:32.930Z,81.90
2019-05-07T00:03:03.313Z,82.30
2019-05-07T00:05:34.115Z,82.70
2019-05-07T00:08:03.210Z,82.60
2019-05-07T00:10:33.306Z,82.60
2019-05-07T00:13:02.754Z,83.30
2019-05-07T00:15:32.752Z,83.40
2019-05-07T00:18:03.197Z,84.30
2019-05-07T00:20:32.866Z,84.00
2019-05-07T00:23:02.957Z,84.00
2019-05-07T00:25:32.763Z,83.70
2019-05-07T00:28:02.835Z,84.60
2019-05-07T00:30:33.133Z,83.80
2019-05-07T00:33:02.864Z,84.40
2019-05-07T00:35:33.554Z,84.60
2019-05-07T00:38:04.088Z,84.80
2019-05-07T00:40:34.620Z,84.80
2019-05-07T00:43:05.185Z,84.90
2019-05-07T00:45:38.464Z,85.30
2019-05-07T00:48:07.430Z,86.00
2019-05-07T00:50:37.906Z,86.70
2019-05-07T00:53:06.841Z,86.20
2019-05-07T00:55:35.786Z,86.00
2019-05-07T00:58:04.686Z,86.00
2019-05-07T01:00:34.373Z,86.00
2019-05-07T01:03:03.447Z,85.90
2019-05-07T01:05:32.669Z,86.30
2019-05-07T01:08:02.726Z,86.30
2019-05-07T01:10:32.939Z,86.30
2019-05-07T01:13:02.693Z,86.10
2019-05-07T01:15:34.471Z,86.30
2019-05-07T01:18:03.468Z,87.40
2019-05-07T01:20:32.923Z,87.70
2019-05-07T01:23:02.745Z,87.50
2019-05-07T01:25:32.901Z,87.70
2019-05-07T01:28:02.611Z,87.80
2019-05-07T01:30:32.458Z,87.50
2019-05-07T01:33:03.266Z,87.40
2019-05-07T01:35:33.736Z,87.50
2019-05-07T01:38:03.155Z,88.30
2019-05-07T01:40:32.431Z,87.90
2019-05-07T01:43:02.552Z,87.40
2019-05-07T01:45:43.228Z,88.00
2019-05-07T01:48:04.333Z,87.40
2019-05-07T01:50:35.304Z,87.70
2019-05-07T01:53:04.211Z,87.80
2019-05-07T01:55:33.171Z,88.60
2019-05-07T01:58:04.541Z,88.60
2019-05-07T02:00:32.732Z,88.80
2019-05-07T02:03:19.404Z,88.40
2019-05-07T02:06:05.195Z,88.50
2019-05-07T02:08:54.971Z,88.00
2019-05-07T02:11:25.555Z,88.70
2019-05-07T02:13:54.622Z,88.20
2019-05-07T02:16:24.303Z,88.40
2019-05-07T02:18:53.294Z,88.40
2019-05-07T02:21:22.432Z,88.10
2019-05-07T02:23:52.340Z,88.10
2019-05-07T02:26:22.559Z,87.90
2019-05-07T02:28:51.981Z,88.00
2019-05-07T02:31:23.384Z,88.10
2019-05-07T02:33:54.212Z,88.30
2019-05-07T02:36:23.887Z,88.20
2019-05-07T02:39:12.618Z,88.10
2019-05-07T02:41:43.747Z,88.30
2019-05-07T02:44:14.054Z,88.60
2019-05-07T02:46:55.406Z,88.20
2019-05-07T02:49:28.669Z,88.50
2019-05-07T02:51:59.125Z,88.90
2019-05-07T02:54:46.236Z,88.60
2019-05-07T02:57:17.079Z,88.50
2019-05-07T02:59:45.641Z,88.70
2019-05-07T03:02:14.635Z,88.30
2019-05-07T03:04:44.752Z,88.10
2019-05-07T03:07:13.752Z,88.20
2019-05-07T03:09:43.309Z,88.50
2019-05-07T03:12:13.215Z,88.50
2019-05-07T03:14:43.785Z,88.40
2019-05-07T03:17:13.468Z,89.20
2019-05-07T03:19:45.845Z,88.60
2019-05-07T03:22:14.783Z,90.10
2019-05-07T03:24:45.315Z,89.10
2019-05-07T03:27:14.433Z,89.60
2019-05-07T03:29:45.128Z,89.40
2019-05-07T03:32:28.513Z,89.60
2019-05-07T03:35:08.633Z,89.90
2019-05-07T03:37:38.031Z,90.40
2019-05-07T03:40:08.201Z,89.90
2019-05-07T03:42:37.186Z,90.50
2019-05-07T03:45:16.913Z,90.10
2019-05-07T03:48:05.748Z,90.10
2019-05-07T03:50:34.648Z,90.00
2019-05-07T03:53:03.560Z,89.80
2019-05-07T03:55:33.256Z,89.40
2019-05-07T03:58:03.205Z,89.30
2019-05-07T04:00:33.258Z,89.10
2019-05-07T04:03:03.644Z,89.30
2019-05-07T04:05:34.251Z,89.00
2019-05-07T04:08:03.649Z,88.70
2019-05-07T04:10:33.738Z,89.10
2019-05-07T04:13:04.476Z,89.10
2019-05-07T04:15:34.681Z,89.10
2019-05-07T04:18:03.899Z,89.20
2019-05-07T04:20:33.908Z,89.20
2019-05-07T04:23:04.375Z,89.20
2019-05-07T04:25:35.028Z,89.60
2019-05-07T04:28:05.694Z,89.60
2019-05-07T04:30:35.685Z,89.70
2019-05-07T04:33:13.091Z,89.60
2019-05-07T04:35:57.196Z,90.00
2019-05-07T04:38:26.128Z,89.70
2019-05-07T04:40:55.148Z,89.90
2019-05-07T04:43:24.041Z,90.30
2019-05-07T04:45:53.674Z,90.00
2019-05-07T04:48:23.492Z,90.50
2019-05-07T04:50:54.429Z,90.10
2019-05-07T04:53:23.908Z,90.20
2019-05-07T04:55:53.608Z,90.40
2019-05-07T04:58:23.686Z,90.40
2019-05-07T05:00:56.422Z,90.60
2019-05-07T05:03:27.245Z,90.70
2019-05-07T05:05:57.661Z,90.80
2019-05-07T05:08:26.609Z,90.50
2019-05-07T05:10:55.613Z,90.30
2019-05-07T05:13:24.668Z,90.50
2019-05-07T05:15:54.657Z,90.20
2019-05-07T05:18:23.619Z,90.50
2019-05-07T05:20:54.112Z,90.20
2019-05-07T05:23:27.580Z,90.10
2019-05-07T05:25:56.527Z,89.90
2019-05-07T05:28:25.470Z,90.00
2019-05-07T05:30:55.974Z,89.90
2019-05-07T05:33:25.865Z,89.40
2019-05-07T05:35:54.795Z,89.00
2019-05-07T05:38:23.736Z,88.90
2019-05-07T05:40:52.662Z,88.60
2019-05-07T05:43:29.163Z,88.50
2019-05-07T05:46:02.828Z,88.40
2019-05-07T05:48:33.329Z,88.50
2019-05-07T05:51:06.938Z,88.10
2019-05-07T05:53:43.185Z,87.60
2019-05-07T05:56:22.832Z,87.00
2019-05-07T05:59:02.872Z,86.60
2019-05-07T06:01:39.219Z,85.10
2019-05-07T06:04:22.144Z,84.60
2019-05-07T06:07:07.993Z,84.10
2019-05-07T06:09:27.758Z,83.60
2019-05-07T06:12:14.433Z,82.80
2019-05-07T06:14:50.940Z,81.80
2019-05-07T06:17:24.317Z,80.30
2019-05-07T06:19:57.784Z,79.50
2019-05-07T06:22:44.555Z,79.20
2019-05-07T06:25:17.294Z,79.90
2019-05-07T06:27:48.111Z,79.00
2019-05-07T06:30:17.851Z,78.90
2019-05-07T06:32:46.796Z,78.30
2019-05-07T06:35:15.793Z,78.00
2019-05-07T06:37:47.146Z,77.30
2019-05-07T06:40:34.311Z,76.80
2019-05-07T06:43:21.835Z,76.00
2019-05-07T06:45:55.254Z,75.60
2019-05-07T06:48:37.898Z,74.50
2019-05-07T06:50:57.788Z,74.40
2019-05-07T06:53:28.895Z,72.90
2019-05-07T06:55:59.030Z,71.30
2019-05-07T06:58:32.570Z,70.60
2019-05-07T07:01:02.783Z,70.30
2019-05-07T07:03:35.771Z,71.90
2019-05-07T07:06:06.320Z,72.20
2019-05-07T07:08:53.102Z,72.10
2019-05-07T07:11:22.732Z,72.10
2019-05-07T07:13:52.018Z,71.50
2019-05-07T07:16:22.651Z,72.20
2019-05-07T07:18:55.409Z,72.60
2019-05-07T07:21:22.881Z,73.00
2019-05-07T07:23:52.393Z,72.80
2019-05-07T07:26:22.077Z,72.40
2019-05-07T07:28:52.505Z,72.20
2019-05-07T07:31:26.365Z,70.80
2019-05-07T07:33:56.859Z,71.00
2019-05-07T07:36:27.364Z,70.60
2019-05-07T07:38:56.258Z,70.60
2019-05-07T07:41:35.946Z,70.00
2019-05-07T07:44:05.644Z,69.50
2019-05-07T07:46:34.591Z,69.80
2019-05-07T07:49:10.750Z,69.70
2019-05-07T07:51:41.111Z,68.90
2019-05-07T07:54:04.797Z,69.00
2019-05-07T07:56:50.245Z,68.90
2019-05-07T07:59:25.239Z,68.10
2019-05-07T08:02:13.862Z,68.60
2019-05-07T08:04:42.808Z,68.30
2019-05-07T08:07:12.355Z,68.50
2019-05-07T08:09:42.751Z,69.00
2019-05-07T08:12:12.738Z,67.90
2019-05-07T08:14:42.709Z,68.50
2019-05-07T08:17:13.066Z,68.10
2019-05-07T08:19:42.908Z,68.20
2019-05-07T08:22:12.296Z,67.80
2019-05-07T08:24:42.572Z,66.30
2019-05-07T08:27:12.857Z,67.80
2019-05-07T08:29:43.110Z,67.00
2019-05-07T08:32:25.856Z,68.00
2019-05-07T08:34:56.314Z,67.20
2019-05-07T08:37:25.223Z,66.80
2019-05-07T08:39:54.170Z,65.30
2019-05-07T08:42:23.062Z,65.20
2019-05-07T08:45:11.992Z,63.90
2019-05-07T08:47:45.186Z,63.20
2019-05-07T08:50:14.120Z,61.50
2019-05-07T08:52:43.014Z,61.30
2019-05-07T08:55:12.574Z,61.00
2019-05-07T08:57:42.037Z,60.40
2019-05-07T09:00:12.872Z,59.60
2019-05-07T09:02:42.173Z,60.10
2019-05-07T09:05:12.051Z,59.40
2019-05-07T09:07:42.576Z,58.30
2019-05-07T09:10:12.651Z,56.40
2019-05-07T09:12:42.929Z,55.30
2019-05-07T09:15:12.554Z,56.30
2019-05-07T09:17:42.314Z,52.90
2019-05-07T09:20:12.527Z,55.00
2019-05-07T09:22:43.248Z,52.90
2019-05-07T09:25:13.167Z,51.70
2019-05-07T09:27:46.627Z,51.10
2019-05-07T09:30:22.599Z,49.80
2019-05-07T09:32:53.119Z,48.80
2019-05-07T09:35:26.566Z,50.10
2019-05-07T09:37:55.611Z,51.50
2019-05-07T09:40:24.509Z,50.80
2019-05-07T09:42:53.412Z,50.50
2019-05-07T09:45:22.829Z,51.40
2019-05-07T09:47:52.285Z,51.60
2019-05-07T09:50:22.157Z,53.30
2019-05-07T09:52:51.839Z,53.80
2019-05-07T09:55:23.161Z,53.10
2019-05-07T09:57:52.730Z,54.10
2019-05-07T10:00:23.585Z,55.80
2019-05-07T10:02:56.584Z,55.10
2019-05-07T10:05:24.713Z,54.80
2019-05-07T10:07:53.620Z,54.70
2019-05-07T10:10:22.737Z,54.50
2019-05-07T10:13:01.965Z,52.70
2019-05-07T10:15:32.917Z,52.10
2019-05-07T10:18:03.065Z,51.80
2019-05-07T10:20:32.700Z,53.90
2019-05-07T10:23:02.415Z,54.40
2019-05-07T10:25:40.325Z,55.20
2019-05-07T10:28:09.378Z,54.90
2019-05-07T10:30:38.265Z,55.80
2019-05-07T10:33:07.309Z,58.00
2019-05-07T10:35:36.566Z,59.10
2019-05-07T10:38:05.456Z,57.80
2019-05-07T10:40:34.414Z,58.70
2019-05-07T10:43:03.520Z,58.30
2019-05-07T10:45:52.051Z,58.10
2019-05-07T10:48:22.591Z,56.90
2019-05-07T10:50:55.869Z,58.80
2019-05-07T10:53:24.781Z,59.20
2019-05-07T10:55:53.674Z,59.10
2019-05-07T10:58:22.600Z,58.30
2019-05-07T11:00:52.378Z,58.50
2019-05-07T11:03:21.888Z,59.00
2019-05-07T11:05:51.052Z,59.50
2019-05-07T11:08:21.807Z,59.80
2019-05-07T11:10:52.160Z,60.10
2019-05-07T11:13:21.847Z,62.10
2019-05-07T11:15:52.474Z,62.50
2019-05-07T11:18:25.981Z,64.00
2019-05-07T11:20:54.939Z,67.00
2019-05-07T11:23:23.823Z,68.30
2019-05-07T11:25:53.764Z,67.60
2019-05-07T11:28:22.806Z,66.30
2019-05-07T11:30:51.766Z,66.20
2019-05-07T11:33:22.071Z,65.70
2019-05-07T11:35:52.832Z,64.10
2019-05-07T11:38:24.842Z,63.10
2019-05-07T11:40:52.263Z,64.00
2019-05-07T11:43:32.612Z,65.90
2019-05-07T11:46:05.916Z,68.00
2019-05-07T11:48:36.547Z,69.60
2019-05-07T11:51:09.592Z,69.60
2019-05-07T11:53:56.043Z,70.10
2019-05-07T11:56:24.929Z,70.70
2019-05-07T11:58:54.846Z,71.60
2019-05-07T12:01:23.899Z,73.70
2019-05-07T12:03:52.827Z,74.40
2019-05-07T12:06:21.758Z,71.90
2019-05-07T12:08:52.058Z,69.70
2019-05-07T12:11:21.882Z,73.30
2019-05-07T12:13:52.359Z,73.50
2019-05-07T12:16:22.332Z,71.80
2019-05-07T12:18:52.448Z,69.50
2019-05-07T12:21:24.184Z,73.50
2019-05-07T12:23:52.814Z,72.20
2019-05-07T12:26:22.291Z,73.50
2019-05-07T12:28:52.202Z,74.50
2019-05-07T12:31:22.894Z,72.00
2019-05-07T12:33:53.358Z,73.00
2019-05-07T12:36:22.712Z,69.70
2019-05-07T12:38:53.270Z,69.70
2019-05-07T12:41:33.701Z,67.40
2019-05-07T12:44:05.168Z,64.00
2019-05-07T12:46:34.873Z,63.40
2019-05-07T12:49:03.781Z,63.20
2019-05-07T12:51:37.396Z,63.10
2019-05-07T12:54:15.613Z,59.70
2019-05-07T12:56:44.555Z,59.80
2019-05-07T12:59:13.536Z,59.00
2019-05-07T13:01:47.159Z,58.20
2019-05-07T13:04:22.006Z,58.00
2019-05-07T13:06:55.622Z,57.10
2019-05-07T13:09:24.654Z,57.20
2019-05-07T13:11:53.577Z,57.80
2019-05-07T13:14:23.038Z,57.10
2019-05-07T13:16:52.365Z,57.40
2019-05-07T13:19:22.658Z,58.00
2019-05-07T13:21:51.719Z,58.50
2019-05-07T13:24:22.682Z,59.50
2019-05-07T13:26:51.828Z,59.50
2019-05-07T13:29:22.168Z,59.50
2019-05-07T13:31:54.232Z,60.70
2019-05-07T13:34:23.490Z,62.60
2019-05-07T13:36:54.768Z,63.40
2019-05-07T13:39:26.447Z,63.40
2019-05-07T13:42:02.042Z,63.00
2019-05-07T13:44:35.160Z,62.10
2019-05-07T13:47:22.186Z,60.20
2019-05-07T13:49:53.537Z,61.30
2019-05-07T13:52:23.902Z,62.40
2019-05-07T13:54:53.412Z,61.40
2019-05-07T13:57:22.857Z,60.70
2019-05-07T13:59:53.000Z,60.50
2019-05-07T14:02:23.779Z,57.90
2019-05-07T14:04:53.152Z,59.00
2019-05-07T14:07:22.587Z,59.20
2019-05-07T14:09:52.736Z,59.70
2019-05-07T14:12:22.929Z,59.30
2019-05-07T14:14:52.999Z,59.30
2019-05-07T14:17:22.184Z,59.50
2019-05-07T14:19:53.027Z,58.50
2019-05-07T14:22:22.743Z,58.10
2019-05-07T14:24:53.089Z,58.40
2019-05-07T14:27:22.358Z,57.60
2019-05-07T14:29:51.997Z,58.60
2019-05-07T14:32:37.980Z,57.90
2019-05-07T14:35:22.706Z,58.30
2019-05-07T14:38:09.300Z,58.50
2019-05-07T14:40:38.203Z,59.10
2019-05-07T14:43:14.426Z,58.40
2019-05-07T14:45:43.543Z,57.80
2019-05-07T14:48:12.547Z,57.20
2019-05-07T14:50:42.007Z,57.80
2019-05-07T14:53:12.192Z,57.00
2019-05-07T14:55:41.929Z,56.40
2019-05-07T14:58:12.443Z,57.10
2019-05-07T15:00:42.725Z,57.90
2019-05-07T15:03:12.541Z,58.20
2019-05-07T15:05:42.283Z,57.40
2019-05-07T15:08:14.147Z,57.40
2019-05-07T15:10:42.141Z,57.50
2019-05-07T15:13:12.750Z,56.80
2019-05-07T15:15:42.041Z,57.10
2019-05-07T15:18:19.140Z,56.50
2019-05-07T15:20:48.182Z,56.00
2019-05-07T15:23:18.741Z,56.60
2019-05-07T15:25:48.270Z,57.30
2019-05-07T15:28:17.776Z,57.00
2019-05-07T15:30:52.377Z,56.60
2019-05-07T15:33:21.775Z,56.20
2019-05-07T15:35:52.080Z,54.40
2019-05-07T15:38:21.692Z,55.20
2019-05-07T15:40:51.931Z,55.90
2019-05-07T15:43:20.910Z,56.10
2019-05-07T15:45:52.313Z,56.20
2019-05-07T15:48:22.032Z,55.80
2019-05-07T15:50:52.043Z,56.80
2019-05-07T15:53:28.505Z,58.10
2019-05-07T15:55:56.565Z,58.60
2019-05-07T15:58:25.461Z,58.70
2019-05-07T16:00:54.460Z,59.20
2019-05-07T16:03:32.145Z,58.70
2019-05-07T16:06:03.574Z,59.50
2019-05-07T16:08:33.438Z,60.20
2019-05-07T16:11:03.798Z,61.60
2019-05-07T16:13:44.402Z,59.40
2019-05-07T16:16:13.329Z,59.10
2019-05-07T16:18:43.802Z,60.20
2019-05-07T16:21:12.704Z,59.70
2019-05-07T16:23:41.700Z,60.20
2019-05-07T16:26:12.543Z,58.70
2019-05-07T16:28:41.730Z,59.30
2019-05-07T16:31:10.847Z,59.80
2019-05-07T16:33:39.745Z,58.90
2019-05-07T16:36:08.655Z,58.70
2019-05-07T16:38:37.604Z,59.30
2019-05-07T16:41:06.512Z,58.60
2019-05-07T16:43:35.442Z,58.60
2019-05-07T16:46:04.411Z,58.20
2019-05-07T16:48:33.310Z,59.00
2019-05-07T16:51:02.431Z,59.40
2019-05-07T16:53:34.983Z,60.00
2019-05-07T16:56:02.953Z,60.00
2019-05-07T16:58:35.043Z,59.20
2019-05-07T17:01:05.790Z,60.20
2019-05-07T17:03:39.288Z,61.10
2019-05-07T17:06:08.194Z,61.20
2019-05-07T17:08:38.702Z,60.60
2019-05-07T17:11:07.634Z,61.20
2019-05-07T17:13:36.555Z,61.30
2019-05-07T17:16:05.555Z,62.40
2019-05-07T17:18:34.499Z,62.00
2019-05-07T17:21:03.415Z,62.30
2019-05-07T17:23:43.325Z,63.50
2019-05-07T17:26:04.873Z,63.50
2019-05-07T17:28:33.640Z,62.40
2019-05-07T17:31:03.042Z,63.20
2019-05-07T17:33:32.184Z,63.60
2019-05-07T17:36:02.489Z,62.70
2019-05-07T17:38:32.159Z,63.30
2019-05-07T17:41:12.578Z,63.60
2019-05-07T17:43:32.537Z,63.20
2019-05-07T17:46:02.876Z,63.50
2019-05-07T17:48:32.768Z,64.40
2019-05-07T17:51:06.598Z,64.40
2019-05-07T17:53:35.598Z,64.00
2019-05-07T17:56:04.506Z,63.30
2019-05-07T17:58:34.944Z,63.50
2019-05-07T18:01:04.869Z,64.30
2019-05-07T18:03:35.489Z,65.00
2019-05-07T18:06:04.981Z,64.70
2019-05-07T18:08:33.886Z,64.50
2019-05-07T18:11:17.456Z,65.10
2019-05-07T18:13:33.579Z,64.60
2019-05-07T18:16:04.178Z,65.00
2019-05-07T18:18:33.118Z,64.80
2019-05-07T18:21:02.465Z,64.80
2019-05-07T18:23:33.133Z,64.90
2019-05-07T18:26:02.145Z,64.70
2019-05-07T18:28:32.521Z,65.00
2019-05-07T18:31:02.148Z,63.90
2019-05-07T18:33:48.925Z,62.30
2019-05-07T18:36:17.982Z,61.40
2019-05-07T18:38:46.924Z,59.90
2019-05-07T18:41:15.862Z,60.10
2019-05-07T18:43:44.834Z,60.10
2019-05-07T18:46:13.730Z,60.50
2019-05-07T18:48:42.839Z,60.90
2019-05-07T18:51:12.259Z,60.80
2019-05-07T18:53:42.555Z,60.00
2019-05-07T18:56:12.635Z,60.50
2019-05-07T18:58:42.591Z,60.90
2019-05-07T19:01:13.307Z,61.30
2019-05-07T19:03:42.281Z,61.10
2019-05-07T19:06:13.475Z,62.20
2019-05-07T19:08:42.792Z,62.60
2019-05-07T19:11:12.346Z,63.20
2019-05-07T19:13:43.036Z,63.60
2019-05-07T19:16:12.643Z,63.80
2019-05-07T19:18:43.058Z,63.70
2019-05-07T19:21:12.285Z,63.70
2019-05-07T19:23:42.366Z,64.00
2019-05-07T19:26:13.062Z,63.50
2019-05-07T19:28:42.299Z,63.00
2019-05-07T19:31:12.460Z,63.60
2019-05-07T19:33:42.035Z,64.10
2019-05-07T19:36:11.123Z,64.50
2019-05-07T19:38:42.040Z,65.30
2019-05-07T19:41:12.303Z,66.10
2019-05-07T19:43:41.993Z,66.40
2019-05-07T19:46:12.319Z,66.30
2019-05-07T19:48:43.875Z,67.60
2019-05-07T19:51:13.897Z,67.80
2019-05-07T19:53:42.805Z,66.50
2019-05-07T19:56:16.021Z,67.80
2019-05-07T19:58:44.941Z,67.40
2019-05-07T20:01:15.452Z,67.50
2019-05-07T20:03:44.367Z,67.00
2019-05-07T20:06:13.478Z,66.90
2019-05-07T20:08:43.901Z,66.10
2019-05-07T20:11:26.423Z,66.80
2019-05-07T20:13:55.479Z,66.60
2019-05-07T20:16:24.532Z,66.70
2019-05-07T20:18:53.481Z,66.50
2019-05-07T20:21:23.028Z,67.00
2019-05-07T20:23:52.687Z,67.30
2019-05-07T20:26:23.125Z,68.20
2019-05-07T20:28:52.738Z,68.40
2019-05-07T20:31:22.549Z,68.50
2019-05-07T20:33:53.119Z,70.00
2019-05-07T20:36:22.237Z,69.70
2019-05-07T20:38:52.117Z,69.40
2019-05-07T20:41:23.038Z,68.90
2019-05-07T20:43:52.464Z,68.70
2019-05-07T20:46:21.497Z,68.80
2019-05-07T20:48:52.470Z,70.10
2019-05-07T20:51:23.151Z,69.80
2019-05-07T20:53:53.798Z,71.70
2019-05-07T20:56:39.225Z,73.60
2019-05-07T20:59:08.131Z,74.50
2019-05-07T21:01:37.088Z,75.60
2019-05-07T21:04:06.122Z,78.80
2019-05-07T21:06:37.653Z,79.80
2019-05-07T21:09:08.508Z,81.80
2019-05-07T21:11:37.799Z,81.70
2019-05-07T21:14:06.688Z,81.60
2019-05-07T21:16:35.654Z,83.20
2019-05-07T21:19:04.717Z,84.20
2019-05-07T21:21:33.604Z,81.10
2019-05-07T21:24:02.559Z,83.90
2019-05-07T21:26:32.692Z,83.80
2019-05-07T21:29:03.063Z,82.20
2019-05-07T21:31:32.367Z,85.00
2019-05-07T21:34:03.056Z,86.70
2019-05-07T21:36:32.537Z,84.50
2019-05-07T21:39:02.261Z,87.10
2019-05-07T21:41:33.416Z,85.50
2019-05-07T21:44:02.590Z,84.70
2019-05-07T21:46:32.952Z,84.60
2019-05-07T21:49:02.645Z,85.10
2019-05-07T21:51:31.827Z,84.70
2019-05-07T21:54:04.787Z,86.10
2019-05-07T21:56:35.298Z,85.40
2019-05-07T21:59:14.775Z,85.00
2019-05-07T22:01:49.225Z,84.20
2019-05-07T22:04:18.433Z,85.60
2019-05-07T22:06:47.378Z,86.00
2019-05-07T22:09:16.705Z,84.50
2019-05-07T22:11:45.615Z,85.00
2019-05-07T22:14:14.558Z,84.30
2019-05-07T22:16:43.460Z,84.80
2019-05-07T22:19:12.418Z,84.30
2019-05-07T22:21:43.160Z,84.30
2019-05-07T22:24:13.080Z,86.20
2019-05-07T22:26:43.039Z,86.80
2019-05-07T22:29:13.004Z,85.60
2019-05-07T22:31:44.268Z,86.10
2019-05-07T22:34:30.172Z,85.80
2019-05-07T22:36:59.093Z,85.30
2019-05-07T22:39:28.018Z,85.00
2019-05-07T22:41:57.024Z,85.90
2019-05-07T22:44:26.450Z,86.50
2019-05-07T22:46:55.892Z,87.70
2019-05-07T22:49:24.871Z,86.90
2019-05-07T22:51:54.886Z,87.60
2019-05-07T22:54:25.102Z,88.10
2019-05-07T22:57:07.847Z,86.90
2019-05-07T22:59:36.828Z,86.90
2019-05-07T23:02:05.860Z,87.50
2019-05-07T23:04:34.871Z,87.10
2019-05-07T23:07:03.855Z,86.50
2019-05-07T23:09:32.758Z,85.30
2019-05-07T23:12:02.323Z,85.90
2019-05-07T23:14:33.018Z,85.40
2019-05-07T23:17:02.340Z,85.00
2019-05-07T23:19:32.739Z,85.40
2019-05-07T23:22:02.793Z,85.40
2019-05-07T23:24:31.947Z,85.40
2019-05-07T23:27:01.064Z,84.70
2019-05-07T23:29:29.967Z,84.00
2019-05-07T23:31:58.946Z,84.30
2019-05-07T23:34:27.891Z,84.90
2019-05-07T23:36:56.804Z,84.40
2019-05-07T23:39:30.398Z,84.00
2019-05-07T23:42:12.683Z,82.40
2019-05-07T23:44:42.097Z,81.10
2019-05-07T23:47:12.196Z,78.90
2019-05-07T23:49:42.978Z,78.60
2019-05-07T23:52:12.958Z,78.00
2019-05-07T23:54:42.549Z,77.20
2019-05-07T23:57:14.918Z,77.90
2019-05-07T23:59:42.290Z,77.50
